sensor_id;sensor_type;location;lat;lon;timestamp;P1;durP1;ratioP1;P2;durP2;ratioP2
19291;SDS011;9779;51.756;7.450;2024-02-26T00:01:58;2.00;;;1.90;;
19291;SDS011;9779;51.756;7.450;2024-02-26T00:04:24;2.90;;;1.90;;
19291;SDS011;9779;51.756;7.450;2024-02-26T00:06:49;2.60;;;2.40;;
19291;SDS011;9779;51.756;7.450;2024-02-26T00:09:16;3.00;;;2.23;;
19291;SDS011;9779;51.756;7.450;2024-02-26T00:11:41;2.47;;;2.00;;
19291;SDS011;9779;51.756;7.450;2024-02-26T00:14:07;2.00;;;1.90;;
19291;SDS011;9779;51.756;7.450;2024-02-26T00:16:33;5.83;;;2.70;;
19291;SDS011;9779;51.756;7.450;2024-02-26T00:18:58;2.30;;;2.10;;
19291;SDS011;9779;51.756;7.450;2024-02-26T00:21:24;2.23;;;2.03;;
19291;SDS011;9779;51.756;7.450;2024-02-26T00:23:50;2.80;;;2.60;;
19291;SDS011;9779;51.756;7.450;2024-02-26T00:26:18;2.20;;;2.10;;
19291;SDS011;9779;51.756;7.450;2024-02-26T00:28:44;2.23;;;2.13;;
19291;SDS011;9779;51.756;7.450;2024-02-26T00:31:09;2.37;;;2.17;;
19291;SDS011;9779;51.756;7.450;2024-02-26T00:33:35;7.13;;;2.60;;
19291;SDS011;9779;51.756;7.450;2024-02-26T00:36:01;2.90;;;2.70;;
19291;SDS011;9779;51.756;7.450;2024-02-26T00:38:27;2.10;;;2.00;;
19291;SDS011;9779;51.756;7.450;2024-02-26T00:40:52;2.47;;;2.27;;
19291;SDS011;9779;51.756;7.450;2024-02-26T00:43:18;2.40;;;2.30;;
19291;SDS011;9779;51.756;7.450;2024-02-26T00:45:43;3.00;;;2.30;;
19291;SDS011;9779;51.756;7.450;2024-02-26T00:48:11;4.10;;;2.20;;
19291;SDS011;9779;51.756;7.450;2024-02-26T00:50:38;2.30;;;2.00;;
19291;SDS011;9779;51.756;7.450;2024-02-26T00:53:04;2.47;;;2.33;;
19291;SDS011;9779;51.756;7.450;2024-02-26T00:55:30;2.50;;;2.30;;
19291;SDS011;9779;51.756;7.450;2024-02-26T00:57:56;2.23;;;2.10;;
19291;SDS011;9779;51.756;7.450;2024-02-26T01:00:21;2.30;;;2.20;;
19291;SDS011;9779;51.756;7.450;2024-02-26T01:02:47;2.60;;;2.40;;
19291;SDS011;9779;51.756;7.450;2024-02-26T01:05:13;2.70;;;2.10;;
19291;SDS011;9779;51.756;7.450;2024-02-26T01:07:39;2.00;;;1.90;;
19291;SDS011;9779;51.756;7.450;2024-02-26T01:10:08;2.13;;;2.03;;
19291;SDS011;9779;51.756;7.450;2024-02-26T01:12:34;2.20;;;2.10;;
19291;SDS011;9779;51.756;7.450;2024-02-26T01:15:00;4.77;;;2.20;;
19291;SDS011;9779;51.756;7.450;2024-02-26T01:17:26;2.47;;;2.30;;
19291;SDS011;9779;51.756;7.450;2024-02-26T01:19:51;1.90;;;1.80;;
19291;SDS011;9779;51.756;7.450;2024-02-26T01:22:18;2.57;;;2.37;;
19291;SDS011;9779;51.756;7.450;2024-02-26T01:24:44;5.17;;;1.90;;
19291;SDS011;9779;51.756;7.450;2024-02-26T01:27:10;2.03;;;1.93;;
19291;SDS011;9779;51.756;7.450;2024-02-26T01:29:35;2.30;;;1.93;;
19291;SDS011;9779;51.756;7.450;2024-02-26T01:32:01;1.83;;;1.73;;
19291;SDS011;9779;51.756;7.450;2024-02-26T01:34:27;1.97;;;1.77;;
19291;SDS011;9779;51.756;7.450;2024-02-26T01:36:53;2.43;;;1.70;;
19291;SDS011;9779;51.756;7.450;2024-02-26T01:39:19;1.80;;;1.70;;
19291;SDS011;9779;51.756;7.450;2024-02-26T01:41:44;5.53;;;1.90;;
19291;SDS011;9779;51.756;7.450;2024-02-26T01:44:11;1.80;;;1.70;;
19291;SDS011;9779;51.756;7.450;2024-02-26T01:46:38;1.73;;;1.63;;
19291;SDS011;9779;51.756;7.450;2024-02-26T01:49:04;2.60;;;1.40;;
19291;SDS011;9779;51.756;7.450;2024-02-26T01:51:30;7.10;;;1.70;;
19291;SDS011;9779;51.756;7.450;2024-02-26T01:53:57;1.53;;;1.43;;
19291;SDS011;9779;51.756;7.450;2024-02-26T01:56:25;2.10;;;2.00;;
19291;SDS011;9779;51.756;7.450;2024-02-26T01:58:55;1.90;;;1.80;;
19291;SDS011;9779;51.756;7.450;2024-02-26T02:01:21;2.10;;;1.60;;
19291;SDS011;9779;51.756;7.450;2024-02-26T02:03:50;1.50;;;1.40;;
19291;SDS011;9779;51.756;7.450;2024-02-26T02:06:16;3.93;;;1.90;;
19291;SDS011;9779;51.756;7.450;2024-02-26T02:08:42;2.00;;;1.90;;
19291;SDS011;9779;51.756;7.450;2024-02-26T02:11:08;1.60;;;1.50;;
19291;SDS011;9779;51.756;7.450;2024-02-26T02:13:36;2.00;;;1.90;;
19291;SDS011;9779;51.756;7.450;2024-02-26T02:16:02;1.60;;;1.50;;
19291;SDS011;9779;51.756;7.450;2024-02-26T02:18:28;1.43;;;1.33;;
19291;SDS011;9779;51.756;7.450;2024-02-26T02:20:54;2.27;;;2.17;;
19291;SDS011;9779;51.756;7.450;2024-02-26T02:23:21;1.70;;;1.60;;
19291;SDS011;9779;51.756;7.450;2024-02-26T02:25:47;1.70;;;1.60;;
19291;SDS011;9779;51.756;7.450;2024-02-26T02:28:13;3.07;;;2.00;;
19291;SDS011;9779;51.756;7.450;2024-02-26T02:30:39;1.50;;;1.40;;
19291;SDS011;9779;51.756;7.450;2024-02-26T02:33:05;1.77;;;1.33;;
19291;SDS011;9779;51.756;7.450;2024-02-26T02:35:31;1.60;;;1.50;;
19291;SDS011;9779;51.756;7.450;2024-02-26T02:37:57;1.60;;;1.50;;
19291;SDS011;9779;51.756;7.450;2024-02-26T02:40:23;1.47;;;1.37;;
19291;SDS011;9779;51.756;7.450;2024-02-26T02:42:48;1.97;;;1.40;;
19291;SDS011;9779;51.756;7.450;2024-02-26T02:45:14;1.60;;;1.50;;
19291;SDS011;9779;51.756;7.450;2024-02-26T02:47:39;1.43;;;1.30;;
19291;SDS011;9779;51.756;7.450;2024-02-26T02:50:05;1.43;;;1.20;;
19291;SDS011;9779;51.756;7.450;2024-02-26T02:52:31;1.03;;;1.03;;
19291;SDS011;9779;51.756;7.450;2024-02-26T02:54:57;1.80;;;1.70;;
19291;SDS011;9779;51.756;7.450;2024-02-26T02:57:23;1.43;;;1.33;;
19291;SDS011;9779;51.756;7.450;2024-02-26T02:59:49;1.40;;;1.30;;
19291;SDS011;9779;51.756;7.450;2024-02-26T03:02:14;1.50;;;1.40;;
19291;SDS011;9779;51.756;7.450;2024-02-26T03:04:40;1.30;;;1.20;;
19291;SDS011;9779;51.756;7.450;2024-02-26T03:07:05;1.33;;;1.33;;
19291;SDS011;9779;51.756;7.450;2024-02-26T03:09:31;1.20;;;1.20;;
19291;SDS011;9779;51.756;7.450;2024-02-26T03:11:57;1.30;;;1.13;;
19291;SDS011;9779;51.756;7.450;2024-02-26T03:14:22;1.67;;;1.57;;
19291;SDS011;9779;51.756;7.450;2024-02-26T03:16:48;1.80;;;1.37;;
19291;SDS011;9779;51.756;7.450;2024-02-26T03:19:14;1.93;;;1.83;;
19291;SDS011;9779;51.756;7.450;2024-02-26T03:21:43;1.93;;;1.83;;
19291;SDS011;9779;51.756;7.450;2024-02-26T03:24:09;1.97;;;1.80;;
19291;SDS011;9779;51.756;7.450;2024-02-26T03:26:35;4.43;;;1.60;;
19291;SDS011;9779;51.756;7.450;2024-02-26T03:29:01;2.07;;;1.60;;
19291;SDS011;9779;51.756;7.450;2024-02-26T03:31:28;1.53;;;1.43;;
19291;SDS011;9779;51.756;7.450;2024-02-26T03:33:53;1.90;;;1.80;;
19291;SDS011;9779;51.756;7.450;2024-02-26T03:36:19;1.10;;;1.10;;
19291;SDS011;9779;51.756;7.450;2024-02-26T03:38:46;3.30;;;1.73;;
19291;SDS011;9779;51.756;7.450;2024-02-26T03:41:12;2.03;;;1.93;;
19291;SDS011;9779;51.756;7.450;2024-02-26T03:43:37;1.57;;;1.47;;
19291;SDS011;9779;51.756;7.450;2024-02-26T03:46:03;1.70;;;1.60;;
19291;SDS011;9779;51.756;7.450;2024-02-26T03:48:29;1.83;;;1.70;;
19291;SDS011;9779;51.756;7.450;2024-02-26T03:50:54;1.80;;;1.70;;
19291;SDS011;9779;51.756;7.450;2024-02-26T03:53:20;1.97;;;1.87;;
19291;SDS011;9779;51.756;7.450;2024-02-26T03:55:45;1.67;;;1.57;;
19291;SDS011;9779;51.756;7.450;2024-02-26T03:58:12;1.63;;;1.57;;
19291;SDS011;9779;51.756;7.450;2024-02-26T04:00:37;1.87;;;1.77;;
19291;SDS011;9779;51.756;7.450;2024-02-26T04:03:03;1.90;;;1.70;;
19291;SDS011;9779;51.756;7.450;2024-02-26T04:05:29;1.57;;;1.43;;
19291;SDS011;9779;51.756;7.450;2024-02-26T04:07:54;2.17;;;1.97;;
19291;SDS011;9779;51.756;7.450;2024-02-26T04:10:20;1.63;;;1.53;;
19291;SDS011;9779;51.756;7.450;2024-02-26T04:12:46;1.80;;;1.70;;
19291;SDS011;9779;51.756;7.450;2024-02-26T04:15:12;1.80;;;1.70;;
19291;SDS011;9779;51.756;7.450;2024-02-26T04:17:38;2.77;;;2.00;;
19291;SDS011;9779;51.756;7.450;2024-02-26T04:20:05;1.70;;;1.60;;
19291;SDS011;9779;51.756;7.450;2024-02-26T04:22:31;1.93;;;1.83;;
19291;SDS011;9779;51.756;7.450;2024-02-26T04:24:57;1.60;;;1.50;;
19291;SDS011;9779;51.756;7.450;2024-02-26T04:27:23;1.70;;;1.60;;
19291;SDS011;9779;51.756;7.450;2024-02-26T04:29:48;2.00;;;1.80;;
19291;SDS011;9779;51.756;7.450;2024-02-26T04:32:14;2.10;;;1.57;;
19291;SDS011;9779;51.756;7.450;2024-02-26T04:34:40;2.17;;;2.07;;
19291;SDS011;9779;51.756;7.450;2024-02-26T04:37:06;3.33;;;1.53;;
19291;SDS011;9779;51.756;7.450;2024-02-26T04:39:32;3.93;;;1.63;;
19291;SDS011;9779;51.756;7.450;2024-02-26T04:41:58;1.87;;;1.50;;
19291;SDS011;9779;51.756;7.450;2024-02-26T04:44:23;1.60;;;1.50;;
19291;SDS011;9779;51.756;7.450;2024-02-26T04:46:49;1.33;;;1.23;;
19291;SDS011;9779;51.756;7.450;2024-02-26T04:49:14;1.40;;;1.30;;
19291;SDS011;9779;51.756;7.450;2024-02-26T04:51:40;1.50;;;1.40;;
19291;SDS011;9779;51.756;7.450;2024-02-26T04:54:06;1.97;;;1.80;;
19291;SDS011;9779;51.756;7.450;2024-02-26T04:56:32;1.60;;;1.50;;
19291;SDS011;9779;51.756;7.450;2024-02-26T04:58:57;1.37;;;1.37;;
19291;SDS011;9779;51.756;7.450;2024-02-26T05:01:23;1.40;;;1.30;;
19291;SDS011;9779;51.756;7.450;2024-02-26T05:03:49;1.20;;;1.20;;
19291;SDS011;9779;51.756;7.450;2024-02-26T05:06:14;1.30;;;1.20;;
19291;SDS011;9779;51.756;7.450;2024-02-26T05:08:40;1.07;;;1.07;;
19291;SDS011;9779;51.756;7.450;2024-02-26T05:11:06;1.77;;;1.40;;
19291;SDS011;9779;51.756;7.450;2024-02-26T05:13:31;1.40;;;1.30;;
19291;SDS011;9779;51.756;7.450;2024-02-26T05:15:57;1.17;;;1.17;;
19291;SDS011;9779;51.756;7.450;2024-02-26T05:18:23;1.50;;;1.40;;
19291;SDS011;9779;51.756;7.450;2024-02-26T05:20:49;1.40;;;1.30;;
19291;SDS011;9779;51.756;7.450;2024-02-26T05:23:14;1.60;;;1.50;;
19291;SDS011;9779;51.756;7.450;2024-02-26T05:25:40;1.20;;;1.20;;
19291;SDS011;9779;51.756;7.450;2024-02-26T05:28:06;1.60;;;1.50;;
19291;SDS011;9779;51.756;7.450;2024-02-26T05:30:32;1.80;;;1.70;;
19291;SDS011;9779;51.756;7.450;2024-02-26T05:32:58;1.20;;;1.20;;
19291;SDS011;9779;51.756;7.450;2024-02-26T05:35:24;1.50;;;1.37;;
19291;SDS011;9779;51.756;7.450;2024-02-26T05:37:51;1.37;;;1.27;;
19291;SDS011;9779;51.756;7.450;2024-02-26T05:40:16;2.20;;;1.47;;
19291;SDS011;9779;51.756;7.450;2024-02-26T05:42:42;1.57;;;1.47;;
19291;SDS011;9779;51.756;7.450;2024-02-26T05:45:10;1.33;;;1.23;;
19291;SDS011;9779;51.756;7.450;2024-02-26T05:47:35;1.40;;;1.30;;
19291;SDS011;9779;51.756;7.450;2024-02-26T05:50:07;1.47;;;1.37;;
19291;SDS011;9779;51.756;7.450;2024-02-26T05:52:36;1.50;;;1.40;;
19291;SDS011;9779;51.756;7.450;2024-02-26T05:55:03;1.40;;;1.30;;
19291;SDS011;9779;51.756;7.450;2024-02-26T05:57:30;1.33;;;1.20;;
19291;SDS011;9779;51.756;7.450;2024-02-26T05:59:56;1.90;;;1.80;;
19291;SDS011;9779;51.756;7.450;2024-02-26T06:02:22;1.03;;;1.03;;
19291;SDS011;9779;51.756;7.450;2024-02-26T06:04:47;2.80;;;1.60;;
19291;SDS011;9779;51.756;7.450;2024-02-26T06:07:13;1.60;;;1.50;;
19291;SDS011;9779;51.756;7.450;2024-02-26T06:09:38;1.90;;;1.80;;
19291;SDS011;9779;51.756;7.450;2024-02-26T06:12:04;1.90;;;1.80;;
19291;SDS011;9779;51.756;7.450;2024-02-26T06:14:30;1.87;;;1.77;;
19291;SDS011;9779;51.756;7.450;2024-02-26T06:16:56;2.53;;;1.60;;
19291;SDS011;9779;51.756;7.450;2024-02-26T06:19:21;1.70;;;1.60;;
19291;SDS011;9779;51.756;7.450;2024-02-26T06:21:48;2.63;;;1.70;;
19291;SDS011;9779;51.756;7.450;2024-02-26T06:24:14;1.57;;;1.47;;
19291;SDS011;9779;51.756;7.450;2024-02-26T06:26:39;1.80;;;1.40;;
19291;SDS011;9779;51.756;7.450;2024-02-26T06:29:05;1.40;;;1.30;;
19291;SDS011;9779;51.756;7.450;2024-02-26T06:31:31;2.33;;;1.80;;
19291;SDS011;9779;51.756;7.450;2024-02-26T06:33:56;1.60;;;1.37;;
19291;SDS011;9779;51.756;7.450;2024-02-26T06:36:22;1.57;;;1.47;;
19291;SDS011;9779;51.756;7.450;2024-02-26T06:38:48;1.20;;;1.10;;
19291;SDS011;9779;51.756;7.450;2024-02-26T06:41:14;1.63;;;1.20;;
19291;SDS011;9779;51.756;7.450;2024-02-26T06:43:40;1.50;;;1.40;;
19291;SDS011;9779;51.756;7.450;2024-02-26T06:46:05;1.47;;;1.37;;
19291;SDS011;9779;51.756;7.450;2024-02-26T06:48:32;1.77;;;1.67;;
19291;SDS011;9779;51.756;7.450;2024-02-26T06:50:57;1.27;;;1.27;;
19291;SDS011;9779;51.756;7.450;2024-02-26T06:53:23;1.30;;;1.30;;
19291;SDS011;9779;51.756;7.450;2024-02-26T06:55:48;2.53;;;1.50;;
19291;SDS011;9779;51.756;7.450;2024-02-26T06:58:15;1.50;;;1.33;;
19291;SDS011;9779;51.756;7.450;2024-02-26T07:00:41;1.43;;;1.10;;
19291;SDS011;9779;51.756;7.450;2024-02-26T07:03:06;1.20;;;1.20;;
19291;SDS011;9779;51.756;7.450;2024-02-26T07:05:32;1.27;;;1.27;;
19291;SDS011;9779;51.756;7.450;2024-02-26T07:07:57;1.47;;;1.37;;
19291;SDS011;9779;51.756;7.450;2024-02-26T07:10:23;1.10;;;1.03;;
19291;SDS011;9779;51.756;7.450;2024-02-26T07:12:49;0.97;;;0.97;;
19291;SDS011;9779;51.756;7.450;2024-02-26T07:15:14;1.20;;;1.20;;
19291;SDS011;9779;51.756;7.450;2024-02-26T07:17:40;1.23;;;1.17;;
19291;SDS011;9779;51.756;7.450;2024-02-26T07:20:12;2.20;;;1.37;;
19291;SDS011;9779;51.756;7.450;2024-02-26T07:22:39;2.47;;;1.23;;
19291;SDS011;9779;51.756;7.450;2024-02-26T07:25:05;1.33;;;1.23;;
19291;SDS011;9779;51.756;7.450;2024-02-26T07:27:33;1.33;;;1.27;;
19291;SDS011;9779;51.756;7.450;2024-02-26T07:29:58;1.60;;;1.40;;
19291;SDS011;9779;51.756;7.450;2024-02-26T07:32:24;1.40;;;1.30;;
19291;SDS011;9779;51.756;7.450;2024-02-26T07:34:49;1.53;;;1.30;;
19291;SDS011;9779;51.756;7.450;2024-02-26T07:37:15;1.60;;;1.07;;
19291;SDS011;9779;51.756;7.450;2024-02-26T07:39:41;1.23;;;1.23;;
19291;SDS011;9779;51.756;7.450;2024-02-26T07:42:06;6.63;;;1.70;;
19291;SDS011;9779;51.756;7.450;2024-02-26T07:44:32;1.10;;;1.10;;
19291;SDS011;9779;51.756;7.450;2024-02-26T07:46:58;1.53;;;1.43;;
19291;SDS011;9779;51.756;7.450;2024-02-26T07:49:24;1.43;;;1.30;;
19291;SDS011;9779;51.756;7.450;2024-02-26T07:51:49;1.70;;;1.60;;
19291;SDS011;9779;51.756;7.450;2024-02-26T07:54:15;1.60;;;1.50;;
19291;SDS011;9779;51.756;7.450;2024-02-26T07:56:41;1.73;;;1.63;;
19291;SDS011;9779;51.756;7.450;2024-02-26T07:59:07;1.63;;;1.53;;
19291;SDS011;9779;51.756;7.450;2024-02-26T08:01:32;1.30;;;1.20;;
19291;SDS011;9779;51.756;7.450;2024-02-26T08:03:59;1.20;;;1.10;;
19291;SDS011;9779;51.756;7.450;2024-02-26T08:06:25;1.50;;;1.40;;
19291;SDS011;9779;51.756;7.450;2024-02-26T08:08:50;1.40;;;1.30;;
19291;SDS011;9779;51.756;7.450;2024-02-26T08:11:16;1.23;;;1.23;;
19291;SDS011;9779;51.756;7.450;2024-02-26T08:13:42;1.37;;;1.27;;
19291;SDS011;9779;51.756;7.450;2024-02-26T08:16:07;1.60;;;1.50;;
19291;SDS011;9779;51.756;7.450;2024-02-26T08:18:33;1.50;;;1.40;;
19291;SDS011;9779;51.756;7.450;2024-02-26T08:20:59;1.30;;;1.30;;
19291;SDS011;9779;51.756;7.450;2024-02-26T08:23:24;1.63;;;1.53;;
19291;SDS011;9779;51.756;7.450;2024-02-26T08:25:51;1.60;;;1.50;;
19291;SDS011;9779;51.756;7.450;2024-02-26T08:28:16;1.20;;;1.10;;
19291;SDS011;9779;51.756;7.450;2024-02-26T08:30:43;3.33;;;1.60;;
19291;SDS011;9779;51.756;7.450;2024-02-26T08:33:09;1.57;;;1.47;;
19291;SDS011;9779;51.756;7.450;2024-02-26T08:35:35;1.40;;;1.30;;
19291;SDS011;9779;51.756;7.450;2024-02-26T08:38:01;1.50;;;1.40;;
19291;SDS011;9779;51.756;7.450;2024-02-26T08:40:27;1.60;;;1.50;;
19291;SDS011;9779;51.756;7.450;2024-02-26T08:42:53;1.27;;;1.23;;
19291;SDS011;9779;51.756;7.450;2024-02-26T08:45:19;4.50;;;1.30;;
19291;SDS011;9779;51.756;7.450;2024-02-26T08:47:45;1.30;;;1.20;;
19291;SDS011;9779;51.756;7.450;2024-02-26T08:50:11;1.70;;;1.60;;
19291;SDS011;9779;51.756;7.450;2024-02-26T08:52:37;1.47;;;1.20;;
19291;SDS011;9779;51.756;7.450;2024-02-26T08:55:03;1.47;;;1.37;;
19291;SDS011;9779;51.756;7.450;2024-02-26T08:57:30;1.70;;;1.30;;
19291;SDS011;9779;51.756;7.450;2024-02-26T08:59:58;1.33;;;1.23;;
19291;SDS011;9779;51.756;7.450;2024-02-26T09:02:25;3.13;;;1.50;;
19291;SDS011;9779;51.756;7.450;2024-02-26T09:04:51;4.87;;;2.20;;
19291;SDS011;9779;51.756;7.450;2024-02-26T09:07:19;3.00;;;1.70;;
19291;SDS011;9779;51.756;7.450;2024-02-26T09:09:45;3.53;;;1.37;;
19291;SDS011;9779;51.756;7.450;2024-02-26T09:12:10;1.47;;;1.37;;
19291;SDS011;9779;51.756;7.450;2024-02-26T09:14:36;1.80;;;1.70;;
19291;SDS011;9779;51.756;7.450;2024-02-26T09:17:02;2.57;;;1.80;;
19291;SDS011;9779;51.756;7.450;2024-02-26T09:19:27;1.40;;;1.30;;
19291;SDS011;9779;51.756;7.450;2024-02-26T09:21:53;1.47;;;1.37;;
19291;SDS011;9779;51.756;7.450;2024-02-26T09:24:22;1.57;;;1.47;;
19291;SDS011;9779;51.756;7.450;2024-02-26T09:26:48;1.40;;;1.30;;
19291;SDS011;9779;51.756;7.450;2024-02-26T09:29:14;1.50;;;1.40;;
19291;SDS011;9779;51.756;7.450;2024-02-26T09:31:39;1.63;;;1.53;;
19291;SDS011;9779;51.756;7.450;2024-02-26T09:34:06;1.53;;;1.43;;
19291;SDS011;9779;51.756;7.450;2024-02-26T09:36:32;1.67;;;1.57;;
19291;SDS011;9779;51.756;7.450;2024-02-26T09:39:00;1.50;;;1.13;;
19291;SDS011;9779;51.756;7.450;2024-02-26T09:41:28;2.60;;;1.20;;
19291;SDS011;9779;51.756;7.450;2024-02-26T09:43:55;1.73;;;1.63;;
19291;SDS011;9779;51.756;7.450;2024-02-26T09:46:22;1.90;;;1.80;;
19291;SDS011;9779;51.756;7.450;2024-02-26T09:48:49;1.73;;;1.63;;
19291;SDS011;9779;51.756;7.450;2024-02-26T09:51:14;5.73;;;2.00;;
19291;SDS011;9779;51.756;7.450;2024-02-26T09:53:46;1.93;;;1.83;;
19291;SDS011;9779;51.756;7.450;2024-02-26T09:56:14;2.07;;;1.97;;
19291;SDS011;9779;51.756;7.450;2024-02-26T09:58:40;3.57;;;2.00;;
19291;SDS011;9779;51.756;7.450;2024-02-26T10:01:13;2.30;;;2.10;;
19291;SDS011;9779;51.756;7.450;2024-02-26T10:03:43;2.70;;;2.17;;
19291;SDS011;9779;51.756;7.450;2024-02-26T10:06:10;6.37;;;2.57;;
19291;SDS011;9779;51.756;7.450;2024-02-26T10:08:36;2.43;;;2.13;;
19291;SDS011;9779;51.756;7.450;2024-02-26T10:11:02;2.20;;;2.00;;
19291;SDS011;9779;51.756;7.450;2024-02-26T10:13:29;2.03;;;1.93;;
19291;SDS011;9779;51.756;7.450;2024-02-26T10:15:55;2.90;;;2.70;;
19291;SDS011;9779;51.756;7.450;2024-02-26T10:18:22;2.83;;;2.63;;
19291;SDS011;9779;51.756;7.450;2024-02-26T10:21:01;2.90;;;2.70;;
19291;SDS011;9779;51.756;7.450;2024-02-26T10:23:27;2.50;;;2.30;;
19291;SDS011;9779;51.756;7.450;2024-02-26T10:25:56;3.43;;;3.17;;
19291;SDS011;9779;51.756;7.450;2024-02-26T10:28:22;3.53;;;3.23;;
19291;SDS011;9779;51.756;7.450;2024-02-26T10:30:48;4.83;;;3.40;;
19291;SDS011;9779;51.756;7.450;2024-02-26T10:33:13;4.07;;;3.60;;
19291;SDS011;9779;51.756;7.450;2024-02-26T10:35:39;3.90;;;3.70;;
19291;SDS011;9779;51.756;7.450;2024-02-26T10:38:10;3.53;;;3.23;;
19291;SDS011;9779;51.756;7.450;2024-02-26T10:40:36;3.63;;;3.40;;
19291;SDS011;9779;51.756;7.450;2024-02-26T10:43:02;4.90;;;3.43;;
19291;SDS011;9779;51.756;7.450;2024-02-26T10:45:27;4.73;;;3.63;;
19291;SDS011;9779;51.756;7.450;2024-02-26T10:47:53;5.17;;;3.23;;
19291;SDS011;9779;51.756;7.450;2024-02-26T10:50:19;4.07;;;3.80;;
19291;SDS011;9779;51.756;7.450;2024-02-26T10:52:45;3.70;;;3.40;;
19291;SDS011;9779;51.756;7.450;2024-02-26T10:55:16;5.20;;;3.63;;
19291;SDS011;9779;51.756;7.450;2024-02-26T10:57:45;4.03;;;3.63;;
19291;SDS011;9779;51.756;7.450;2024-02-26T11:00:15;5.73;;;4.07;;
19291;SDS011;9779;51.756;7.450;2024-02-26T11:02:41;3.97;;;3.77;;
19291;SDS011;9779;51.756;7.450;2024-02-26T11:05:09;4.27;;;3.97;;
19291;SDS011;9779;51.756;7.450;2024-02-26T11:07:37;4.20;;;3.90;;
19291;SDS011;9779;51.756;7.450;2024-02-26T11:10:04;4.63;;;3.87;;
19291;SDS011;9779;51.756;7.450;2024-02-26T11:12:33;4.57;;;4.27;;
19291;SDS011;9779;51.756;7.450;2024-02-26T11:15:03;5.80;;;3.67;;
19291;SDS011;9779;51.756;7.450;2024-02-26T11:17:30;3.67;;;3.43;;
19291;SDS011;9779;51.756;7.450;2024-02-26T11:19:57;4.20;;;3.90;;
19291;SDS011;9779;51.756;7.450;2024-02-26T11:22:26;3.83;;;3.60;;
19291;SDS011;9779;51.756;7.450;2024-02-26T11:24:53;4.47;;;3.50;;
19291;SDS011;9779;51.756;7.450;2024-02-26T11:27:23;3.73;;;3.43;;
19291;SDS011;9779;51.756;7.450;2024-02-26T11:29:55;3.77;;;3.57;;
19291;SDS011;9779;51.756;7.450;2024-02-26T11:32:24;4.00;;;3.70;;
19291;SDS011;9779;51.756;7.450;2024-02-26T11:34:51;4.43;;;3.80;;
19291;SDS011;9779;51.756;7.450;2024-02-26T11:37:18;4.10;;;3.80;;
19291;SDS011;9779;51.756;7.450;2024-02-26T11:39:45;3.63;;;3.33;;
19291;SDS011;9779;51.756;7.450;2024-02-26T11:42:14;4.47;;;2.93;;
19291;SDS011;9779;51.756;7.450;2024-02-26T11:44:40;3.70;;;3.40;;
19291;SDS011;9779;51.756;7.450;2024-02-26T11:47:19;3.97;;;2.83;;
19291;SDS011;9779;51.756;7.450;2024-02-26T11:49:46;3.50;;;2.87;;
19291;SDS011;9779;51.756;7.450;2024-02-26T11:52:12;3.77;;;3.47;;
19291;SDS011;9779;51.756;7.450;2024-02-26T11:54:43;5.23;;;3.33;;
19291;SDS011;9779;51.756;7.450;2024-02-26T11:59:50;3.40;;;3.20;;
19291;SDS011;9779;51.756;7.450;2024-02-26T12:05:06;3.53;;;3.33;;
19291;SDS011;9779;51.756;7.450;2024-02-26T12:07:37;2.90;;;2.70;;
19291;SDS011;9779;51.756;7.450;2024-02-26T12:10:14;3.40;;;2.60;;
19291;SDS011;9779;51.756;7.450;2024-02-26T12:12:47;2.93;;;2.70;;
19291;SDS011;9779;51.756;7.450;2024-02-26T12:15:14;3.20;;;3.00;;
19291;SDS011;9779;51.756;7.450;2024-02-26T12:17:40;3.07;;;2.83;;
19291;SDS011;9779;51.756;7.450;2024-02-26T12:20:09;4.10;;;2.70;;
19291;SDS011;9779;51.756;7.450;2024-02-26T12:22:37;2.87;;;2.67;;
19291;SDS011;9779;51.756;7.450;2024-02-26T12:25:05;2.63;;;2.53;;
19291;SDS011;9779;51.756;7.450;2024-02-26T12:27:34;2.60;;;2.40;;
19291;SDS011;9779;51.756;7.450;2024-02-26T12:30:00;3.17;;;2.97;;
19291;SDS011;9779;51.756;7.450;2024-02-26T12:32:26;3.27;;;3.07;;
19291;SDS011;9779;51.756;7.450;2024-02-26T12:34:52;3.23;;;3.03;;
19291;SDS011;9779;51.756;7.450;2024-02-26T12:37:17;2.90;;;2.70;;
19291;SDS011;9779;51.756;7.450;2024-02-26T12:39:43;2.63;;;2.43;;
19291;SDS011;9779;51.756;7.450;2024-02-26T12:42:10;4.17;;;2.50;;
19291;SDS011;9779;51.756;7.450;2024-02-26T12:44:37;9.73;;;2.80;;
19291;SDS011;9779;51.756;7.450;2024-02-26T12:47:03;14.23;;;2.70;;
19291;SDS011;9779;51.756;7.450;2024-02-26T12:49:29;2.70;;;2.50;;
19291;SDS011;9779;51.756;7.450;2024-02-26T12:51:55;2.57;;;2.23;;
19291;SDS011;9779;51.756;7.450;2024-02-26T12:54:26;2.67;;;2.47;;
19291;SDS011;9779;51.756;7.450;2024-02-26T12:56:54;3.33;;;2.10;;
19291;SDS011;9779;51.756;7.450;2024-02-26T12:59:20;2.67;;;2.47;;
19291;SDS011;9779;51.756;7.450;2024-02-26T13:01:46;2.13;;;2.03;;
19291;SDS011;9779;51.756;7.450;2024-02-26T13:04:12;2.13;;;2.03;;
19291;SDS011;9779;51.756;7.450;2024-02-26T13:06:37;2.73;;;2.30;;
19291;SDS011;9779;51.756;7.450;2024-02-26T13:09:03;2.20;;;2.10;;
19291;SDS011;9779;51.756;7.450;2024-02-26T13:11:29;3.40;;;1.83;;
19291;SDS011;9779;51.756;7.450;2024-02-26T13:13:56;3.03;;;2.83;;
19291;SDS011;9779;51.756;7.450;2024-02-26T13:16:23;2.30;;;2.07;;
19291;SDS011;9779;51.756;7.450;2024-02-26T13:18:49;3.90;;;2.53;;
19291;SDS011;9779;51.756;7.450;2024-02-26T13:21:16;2.93;;;2.63;;
19291;SDS011;9779;51.756;7.450;2024-02-26T13:23:43;2.50;;;2.37;;
19291;SDS011;9779;51.756;7.450;2024-02-26T13:26:14;5.10;;;2.10;;
19291;SDS011;9779;51.756;7.450;2024-02-26T13:28:39;2.50;;;2.30;;
19291;SDS011;9779;51.756;7.450;2024-02-26T13:31:05;2.50;;;2.40;;
19291;SDS011;9779;51.756;7.450;2024-02-26T13:33:32;2.07;;;1.97;;
19291;SDS011;9779;51.756;7.450;2024-02-26T13:35:58;2.87;;;2.67;;
19291;SDS011;9779;51.756;7.450;2024-02-26T13:38:25;2.73;;;2.53;;
19291;SDS011;9779;51.756;7.450;2024-02-26T13:40:52;2.37;;;2.27;;
19291;SDS011;9779;51.756;7.450;2024-02-26T13:43:18;2.43;;;2.30;;
19291;SDS011;9779;51.756;7.450;2024-02-26T13:45:44;2.80;;;2.60;;
19291;SDS011;9779;51.756;7.450;2024-02-26T13:48:10;2.43;;;2.23;;
19291;SDS011;9779;51.756;7.450;2024-02-26T13:50:40;2.43;;;2.20;;
19291;SDS011;9779;51.756;7.450;2024-02-26T13:53:08;8.23;;;7.13;;
19291;SDS011;9779;51.756;7.450;2024-02-26T13:55:34;3.20;;;2.90;;
19291;SDS011;9779;51.756;7.450;2024-02-26T13:57:59;3.57;;;2.43;;
19291;SDS011;9779;51.756;7.450;2024-02-26T14:00:29;2.63;;;2.43;;
19291;SDS011;9779;51.756;7.450;2024-02-26T14:02:57;2.47;;;2.27;;
19291;SDS011;9779;51.756;7.450;2024-02-26T14:05:23;3.30;;;3.10;;
19291;SDS011;9779;51.756;7.450;2024-02-26T14:07:49;1.70;;;1.60;;
19291;SDS011;9779;51.756;7.450;2024-02-26T14:10:14;2.90;;;2.70;;
19291;SDS011;9779;51.756;7.450;2024-02-26T14:12:41;1.90;;;1.80;;
19291;SDS011;9779;51.756;7.450;2024-02-26T14:15:07;1.80;;;1.70;;
19291;SDS011;9779;51.756;7.450;2024-02-26T14:17:33;2.23;;;2.13;;
19291;SDS011;9779;51.756;7.450;2024-02-26T14:19:59;2.33;;;2.17;;
19291;SDS011;9779;51.756;7.450;2024-02-26T14:22:24;2.40;;;1.77;;
19291;SDS011;9779;51.756;7.450;2024-02-26T14:24:52;1.73;;;1.63;;
19291;SDS011;9779;51.756;7.450;2024-02-26T14:27:17;2.30;;;2.17;;
19291;SDS011;9779;51.756;7.450;2024-02-26T14:29:45;2.00;;;1.90;;
19291;SDS011;9779;51.756;7.450;2024-02-26T14:32:11;1.70;;;1.60;;
19291;SDS011;9779;51.756;7.450;2024-02-26T14:34:37;2.20;;;2.07;;
19291;SDS011;9779;51.756;7.450;2024-02-26T14:37:03;2.03;;;1.93;;
19291;SDS011;9779;51.756;7.450;2024-02-26T14:39:29;2.37;;;1.80;;
19291;SDS011;9779;51.756;7.450;2024-02-26T14:41:56;2.00;;;1.80;;
19291;SDS011;9779;51.756;7.450;2024-02-26T14:44:22;1.83;;;1.73;;
19291;SDS011;9779;51.756;7.450;2024-02-26T14:46:49;2.60;;;1.80;;
19291;SDS011;9779;51.756;7.450;2024-02-26T14:49:15;2.90;;;1.70;;
19291;SDS011;9779;51.756;7.450;2024-02-26T14:51:40;2.53;;;2.33;;
19291;SDS011;9779;51.756;7.450;2024-02-26T14:54:07;2.00;;;1.90;;
19291;SDS011;9779;51.756;7.450;2024-02-26T14:56:32;1.90;;;1.80;;
19291;SDS011;9779;51.756;7.450;2024-02-26T14:58:58;2.00;;;1.90;;
19291;SDS011;9779;51.756;7.450;2024-02-26T15:01:23;2.07;;;1.97;;